Saint Hedwig, TX (78152)

11:19 CDT le 29 Mars 2015 (GMT -0500)
Sayers | | Change Station
CLOSE
Current Station
Stations météorologiques personnelles
Location: Adkins, TX
Altitude: 582 ft
Stations météo à proximité

Alt. 582 ft 29.39 °N, 98.28 °W | Updated 2 minutes ago

Ciel dégagé
Ciel dégagé
70.3 ° F
Paraît 72 ° F
N
4.0
Vent Variable Vent de Sud
Gusts 14.0 mph

Aujourd'hui
Haut(e) -- | Bas -- ° F
--% Risque de précip.
Hier
Haut(e) -- | Bas -- ° F
Precip. -- pouce
7:26 AM 7:49 PM
Lune gibbeuse croissante, 72% visible
Pression 30.13 pouce
Visibilité 10.0 Miles terrestres
Nuages Ciel dégagé
indice de chaleur 72 ° F
Point de rosée 62 ° F
Humidité 76%
Précipitations 0.00 pouce
Profondeur de la couche neigeuse Non disponible.
UV 6 sur 12
Pollen 10.90 sur 12
Qualité de l'air Non disponible.
Flu Activity Non disponible.
METAR KRND 291558Z AUTO 18010KT 10SM CLR 20/15 A3014 RMK AO2 SLP202 T01980150

More Conditions Fewer Conditions

Pression 30.13 pouce
Visibilité 10.0 Miles terrestres
Nuages Ciel dégagé
indice de chaleur 72 ° F
Point de rosée 62 ° F
Humidité 76%
Précipitations 0.00 pouce
Profondeur de la couche neigeuse Non disponible.
UV 6 sur 12
Pollen 10.90 sur 12
Qualité de l'air Non disponible.
Flu Activity Non disponible.
METAR KRND 291558Z AUTO 18010KT 10SM CLR 20/15 A3014 RMK AO2 SLP202 T01980150

More Conditions Fewer Conditions

10-Day Weather Forecast

Almanac

Astronomie

Mar. 29, 2015 Lever Coucher
Temps réel
Crépuscule civil
Crépuscule nautique
Crépuscule astronomique
Lune
Durée de lumière visible
Longueur du jour
Tomorrow will be .
, % of the Moon is Illuminated

Extrêmes aujourd'hui

State Highs State Lows

Community

WunderPhotos

Upload Photos

1,809,279 Photos téléchargées !

WunderBlogs® & News

Nearby

Qualité de l'air

  Qualité de l'air Indice de la qualité de l'air Polluant
Not available.

Épaisseur de neige

Station Depth Altitude

Activité sismique

Ville Distance Mag. Time & Date
Minimum magnitude displayed is 2.5.

Températures des eaux côtières

Lieu Température

Stations

Stations météo à proximité

Emplacement de la station Température Refroidissement éolien Point de rosée Humidité Vent Precip. Alt. Mise à jour Type